Time;durP1;ratioP1;P1;durP2;ratioP2;P2;SDS_P1;SDS_P2;PMS_P1;PMS_P2;Temp;Humidity;BMP_temperature;BMP_pressure;BME280_temperature;BME280_humidity;BME280_pressure;Samples;Min_cycle;Max_cycle;Signal;HPM_P1;HPM_P2
2024/01/08 00:09:53;;;;;;;26.60;20.65;;;;;;;20.63;55.19;99590.50;41355162;28;20046;-70
2024/01/08 00:29:53;;;;;;;24.85;19.05;;;;;;;20.59;54.79;99604.88;41373873;28;20074;-72
2024/01/08 00:49:54;;;;;;;23.58;17.58;;;;;;;20.51;55.04;99631.84;41365701;28;20615;-72
2024/01/08 01:09:54;;;;;;;19.05;14.93;;;;;;;20.48;54.76;99632.94;41257493;28;20038;-72
2024/01/08 01:29:55;;;;;;;19.88;15.38;;;;;;;20.44;54.73;99657.81;41371283;28;20049;-71
2024/01/08 01:49:56;;;;;;;19.38;13.90;;;;;;;20.43;54.01;99652.72;41360507;28;20147;-71
2024/01/08 02:09:56;;;;;;;18.15;13.50;;;;;;;20.36;54.03;99656.81;41362419;28;20049;-73
2024/01/08 02:29:57;;;;;;;15.55;12.13;;;;;;;20.27;54.05;99667.16;41407748;28;20049;-72
2024/01/08 02:49:57;;;;;;;14.93;11.30;;;;;;;20.26;53.91;99677.81;41387531;28;20050;-72
2024/01/08 03:09:58;;;;;;;14.95;11.10;;;;;;;20.16;53.59;99685.63;41408370;28;20180;-71
2024/01/08 03:29:58;;;;;;;12.88;9.98;;;;;;;20.13;54.09;99731.41;41415999;28;20042;-72
2024/01/08 03:49:59;;;;;;;12.95;9.95;;;;;;;20.09;54.00;99750.19;41400662;28;20077;-72
2024/01/08 04:09:59;;;;;;;13.23;9.32;;;;;;;20.03;54.05;99772.56;41383456;28;20125;-71
2024/01/08 04:29:59;;;;;;;11.68;9.02;;;;;;;20.05;54.11;99786.41;41375087;28;20097;-72
2024/01/08 04:50:00;;;;;;;10.45;8.02;;;;;;;20.04;54.07;99800.50;41384023;28;20494;-72
2024/01/08 05:10:02;;;;;;;11.68;8.57;;;;;;;20.10;53.47;99834.19;41383916;28;21083;-75
2024/01/08 05:30:04;;;;;;;19.88;9.73;;;;;;;21.16;51.89;99857.88;41332251;28;21161;-73
2024/01/08 05:50:05;;;;;;;25.13;11.90;;;;;;;21.16;52.52;99886.03;41386483;28;20050;-74
2024/01/08 06:10:06;;;;;;;23.45;10.20;;;;;;;20.84;48.03;99914.09;41418450;28;20050;-75
2024/01/08 06:30:07;;;;;;;17.60;9.00;;;;;;;21.30;47.20;99933.09;41374429;28;20065;-70
2024/01/08 06:50:08;;;;;;;14.93;8.52;;;;;;;21.30;47.49;99966.47;41360233;28;20075;-69
2024/01/08 07:10:08;;;;;;;12.05;7.55;;;;;;;21.42;48.50;100002.28;41375139;28;20042;-69
2024/01/08 07:30:09;;;;;;;13.13;7.53;;;;;;;21.28;47.21;100025.34;41375350;28;20050;-69
2024/01/08 07:50:11;;;;;;;11.23;7.28;;;;;;;21.30;47.69;100058.63;41352745;28;20137;-67
2024/01/08 08:10:12;;;;;;;11.10;6.65;;;;;;;21.37;48.02;100099.31;41356138;28;20053;-68
2024/01/08 08:30:16;;;;;;;10.40;6.82;;;;;;;21.43;47.57;100117.22;41375089;28;20529;-68
2024/01/08 08:50:16;;;;;;;11.10;7.03;;;;;;;21.40;47.88;100130.66;41341286;28;20053;-69
2024/01/08 09:10:16;;;;;;;9.80;6.82;;;;;;;21.34;47.98;100146.97;41354028;28;20073;-67
2024/01/08 09:30:18;;;;;;;11.68;6.82;;;;;;;21.27;47.62;100159.78;41336430;28;20065;-67
2024/01/08 09:50:19;;;;;;;12.68;7.63;;;;;;;21.47;47.77;100160.81;41349923;28;20077;-68
2024/01/08 10:10:20;;;;;;;9.65;7.07;;;;;;;21.54;48.11;100156.69;41381084;28;20050;-69
2024/01/08 10:30:20;;;;;;;9.50;6.47;;;;;;;21.56;47.78;100154.81;41355455;28;20046;-67
2024/01/08 10:50:24;;;;;;;8.85;6.97;;;;;;;21.63;47.45;100160.41;41363226;28;20465;-69
2024/01/08 11:10:25;;;;;;;7.78;5.93;;;;;;;21.57;47.58;100172.28;41392883;28;20061;-69
2024/01/08 11:30:25;;;;;;;8.60;6.47;;;;;;;21.51;48.62;100170.13;41349043;28;20368;-69
2024/01/08 11:50:25;;;;;;;8.13;6.38;;;;;;;21.66;47.76;100183.03;41362938;28;20096;-70
2024/01/08 12:10:28;;;;;;;7.55;5.90;;;;;;;21.68;47.72;100189.84;41386978;28;20049;-69
2024/01/08 12:30:29;;;;;;;7.72;6.00;;;;;;;21.62;48.02;100200.91;41372204;28;20128;-69
2024/01/08 12:50:31;;;;;;;7.10;5.72;;;;;;;21.85;47.76;100209.53;41359691;28;20072;-71
2024/01/08 13:10:31;;;;;;;11.93;8.30;;;;;;;21.97;50.51;100241.94;41346892;28;20046;-70
2024/01/08 13:30:32;;;;;;;10.40;8.52;;;;;;;21.87;50.73;100248.94;41323501;28;20050;-69
2024/01/08 13:50:32;;;;;;;10.02;7.32;;;;;;;21.79;49.60;100273.28;41328822;28;20393;-70
2024/01/08 14:10:32;;;;;;;9.30;6.97;;;;;;;21.77;49.34;100306.84;41323949;28;20049;-73
2024/01/08 14:30:33;;;;;;;12.00;6.60;;;;;;;21.51;49.15;100335.28;41376714;28;20054;-75
2024/01/08 14:50:33;;;;;;;7.78;5.90;;;;;;;21.57;49.57;100364.63;41378740;28;20061;-76
2024/01/08 15:10:34;;;;;;;4.88;3.92;;;;;;;19.46;35.49;100402.09;41374430;28;20038;-75
2024/01/08 15:30:35;;;;;;;6.68;3.90;;;;;;;20.40;41.90;100428.75;41374084;28;20054;-71
2024/01/08 15:50:35;;;;;;;5.88;3.83;;;;;;;21.11;45.10;100455.09;41416818;28;20391;-76
2024/01/08 16:10:38;;;;;;;6.30;3.65;;;;;;;20.98;46.33;100499.09;41434293;28;20042;-76
2024/01/08 16:30:38;;;;;;;4.85;3.42;;;;;;;20.88;47.33;100527.88;41384192;28;20046;-72
2024/01/08 16:50:39;;;;;;;4.60;3.22;;;;;;;20.82;47.84;100575.72;41379554;28;20043;-71
2024/01/08 17:10:39;;;;;;;4.90;3.33;;;;;;;20.80;48.57;100594.25;41366623;28;20061;-75
2024/01/08 17:30:39;;;;;;;21.25;15.18;;;;;;;20.75;48.01;100635.84;41363733;28;20125;-79
2024/01/08 17:50:40;;;;;;;13.15;9.60;;;;;;;20.85;47.75;100672.84;41370844;28;20042;-76
2024/01/08 18:10:40;;;;;;;13.35;10.63;;;;;;;20.91;52.94;100696.97;41373381;28;20557;-76
2024/01/08 18:30:45;;;;;;;12.73;9.60;;;;;;;20.92;53.52;100721.47;41387776;28;20046;-73
2024/01/08 18:50:46;;;;;;;64.03;20.70;;;;;;;21.05;53.34;100759.16;41347272;28;20046;-75
2024/01/08 19:10:47;;;;;;;40.35;16.65;;;;;;;21.13;53.82;100784.09;41409035;28;20143;-72
2024/01/08 19:30:47;;;;;;;37.25;14.10;;;;;;;21.00;53.39;100807.84;41373780;28;20117;-75
2024/01/08 19:50:49;;;;;;;32.42;13.95;;;;;;;20.91;53.24;100831.22;41381330;28;20195;-74
2024/01/08 20:10:49;;;;;;;29.08;12.07;;;;;;;20.78;52.96;100848.81;41396696;28;20053;-75
2024/01/08 20:30:50;;;;;;;26.60;12.63;;;;;;;20.73;52.92;100875.44;41390256;28;20485;-73
2024/01/08 20:50:50;;;;;;;22.23;10.13;;;;;;;20.16;51.58;100897.56;41372194;28;20073;-76
2024/01/08 21:10:52;;;;;;;17.20;8.15;;;;;;;20.61;51.51;100918.31;41360427;28;20042;-73
2024/01/08 21:30:52;;;;;;;14.93;7.85;;;;;;;20.62;52.07;100939.25;41399089;28;20425;-74
2024/01/08 21:50:53;;;;;;;12.10;7.07;;;;;;;20.64;51.67;100968.97;41404479;28;20041;-73
2024/01/08 22:10:53;;;;;;;10.23;6.10;;;;;;;20.63;51.31;100998.84;41423812;28;20045;-73
2024/01/08 22:30:54;;;;;;;8.93;5.97;;;;;;;20.51;51.89;101017.19;41416405;28;20050;-73
2024/01/08 22:50:54;;;;;;;8.27;5.30;;;;;;;20.52;51.32;101032.91;41397914;28;20053;-72
2024/01/08 23:10:55;;;;;;;7.15;4.68;;;;;;;20.45;51.18;101028.97;41401917;28;20133;-73
2024/01/08 23:30:55;;;;;;;8.70;4.72;;;;;;;20.40;51.71;101047.69;41235857;28;21070;-73
2024/01/08 23:50:56;;;;;;;7.70;4.60;;;;;;;20.35;52.06;101055.03;41219634;28;20085;-74
